Time,TemperatureF,DewpointF,PressureIn,WindDirection,WindDirectionDegrees,WindSpeedMPH,WindSpeedGustMPH,Humidity,HourlyPrecipIn,Conditions,Clouds,dailyrainin,SoftwareType,DateUTC
2013-07-20 00:00:00,76.5,64.0,29.68,NW,313,0.0,0.0,66,0.00,,,0.00,weatherlink.com 1.10,2013-07-20 05:00:00,
2013-07-20 00:15:00,76.2,64.0,29.69,NW,313,0.0,0.0,67,0.00,,,0.00,weatherlink.com 1.10,2013-07-20 05:15:00,
2013-07-20 00:30:00,75.9,64.0,29.69,NW,313,0.0,0.0,67,0.00,,,0.00,weatherlink.com 1.10,2013-07-20 05:30:00,
2013-07-20 00:45:00,75.8,64.0,29.70,NW,313,0.0,0.0,67,0.00,,,0.00,weatherlink.com 1.10,2013-07-20 05:45:00,
2013-07-20 01:00:00,75.6,64.0,29.70,NW,313,0.0,0.0,67,0.00,,,0.00,weatherlink.com 1.10,2013-07-20 06:00:00,
2013-07-20 01:15:00,75.4,64.0,29.70,NW,313,0.0,0.0,68,0.00,,,0.00,weatherlink.com 1.10,2013-07-20 06:15:00,
2013-07-20 01:30:00,75.2,64.0,29.70,NW,313,0.0,0.0,69,0.00,,,0.00,weatherlink.com 1.10,2013-07-20 06:30:00,
2013-07-20 01:45:00,75.0,64.0,29.70,NW,313,0.0,0.0,69,0.00,,,0.00,weatherlink.com 1.10,2013-07-20 06:45:00,
2013-07-20 02:00:00,74.8,64.0,29.70,NW,313,0.0,0.0,70,0.00,,,0.00,weatherlink.com 1.10,2013-07-20 07:00:00,
2013-07-20 02:15:00,74.6,64.0,29.70,NW,313,0.0,0.0,70,0.00,,,0.00,weatherlink.com 1.10,2013-07-20 07:15:00,
2013-07-20 02:30:00,74.2,64.0,29.70,NW,313,0.0,0.0,71,0.00,,,0.00,weatherlink.com 1.10,2013-07-20 07:30:00,
2013-07-20 02:45:00,73.6,64.0,29.69,NW,313,0.0,0.0,72,0.00,,,0.00,weatherlink.com 1.10,2013-07-20 07:45:00,
2013-07-20 03:00:00,72.8,64.0,29.69,NW,313,0.0,0.0,73,0.00,,,0.00,weatherlink.com 1.10,2013-07-20 08:00:00,
2013-07-20 03:15:00,72.1,64.0,29.69,NW,313,0.0,0.0,75,0.00,,,0.00,weatherlink.com 1.10,2013-07-20 08:15:00,
2013-07-20 03:30:00,71.4,64.0,29.68,NW,313,0.0,0.0,77,0.00,,,0.00,weatherlink.com 1.10,2013-07-20 08:30:00,
2013-07-20 03:45:00,70.9,63.0,29.68,NW,313,0.0,0.0,77,0.00,,,0.00,weatherlink.com 1.10,2013-07-20 08:45:00,
2013-07-20 04:00:00,70.4,63.0,29.68,NW,313,0.0,0.0,78,0.00,,,0.00,weatherlink.com 1.10,2013-07-20 09:00:00,
2013-07-20 04:15:00,69.9,62.0,29.67,NW,313,0.0,0.0,77,0.00,,,0.00,weatherlink.com 1.10,2013-07-20 09:15:00,
2013-07-20 04:31:00,69.6,62.0,29.66,NW,313,0.0,0.0,76,0.00,,,0.00,weatherlink.com 1.10,2013-07-20 09:31:00,
2013-07-20 04:46:00,69.5,62.0,29.66,NW,313,0.0,0.0,76,0.00,,,0.00,weatherlink.com 1.10,2013-07-20 09:46:00,
2013-07-20 05:01:00,69.2,62.0,29.66,NW,313,0.0,0.0,77,0.00,,,0.00,weatherlink.com 1.10,2013-07-20 10:01:00,
2013-07-20 05:16:00,68.8,61.0,29.67,NW,313,0.0,0.0,77,0.00,,,0.00,weatherlink.com 1.10,2013-07-20 10:16:00,
2013-07-20 05:31:00,68.3,62.0,29.67,NW,313,0.0,0.0,79,0.00,,,0.00,weatherlink.com 1.10,2013-07-20 10:31:00,
2013-07-20 05:46:00,67.3,61.0,29.67,NW,313,0.0,0.0,81,0.00,,,0.00,weatherlink.com 1.10,2013-07-20 10:46:00,
2013-07-20 06:01:00,66.7,61.0,29.67,NW,313,0.0,0.0,83,0.00,,,0.00,weatherlink.com 1.10,2013-07-20 11:01:00,
2013-07-20 06:16:00,66.1,61.0,29.67,NW,313,0.0,0.0,84,0.00,,,0.00,weatherlink.com 1.10,2013-07-20 11:16:00,
2013-07-20 06:31:00,66.1,61.0,29.67,NW,313,0.0,0.0,83,0.00,,,0.00,weatherlink.com 1.10,2013-07-20 11:31:00,
2013-07-20 06:46:00,65.9,61.0,29.68,NW,313,0.0,0.0,84,0.00,,,0.00,weatherlink.com 1.10,2013-07-20 11:46:00,
2013-07-20 07:01:00,66.4,62.0,29.69,NW,313,0.0,0.0,84,0.00,,,0.00,weatherlink.com 1.10,2013-07-20 12:01:00,
2013-07-20 07:16:00,66.6,62.0,29.69,NW,313,0.0,0.0,85,0.00,,,0.00,weatherlink.com 1.10,2013-07-20 12:16:00,
2013-07-20 07:31:00,66.7,62.0,29.69,NW,313,0.0,0.0,85,0.00,,,0.00,weatherlink.com 1.10,2013-07-20 12:31:00,
2013-07-20 07:46:00,67.0,62.0,29.70,NW,313,0.0,0.0,85,0.00,,,0.00,weatherlink.com 1.10,2013-07-20 12:46:00,
2013-07-20 08:01:00,67.8,63.0,29.70,NW,313,0.0,0.0,85,0.00,,,0.00,weatherlink.com 1.10,2013-07-20 13:01:00,
2013-07-20 08:16:00,69.2,63.0,29.69,NW,307,0.0,1.0,81,0.00,,,0.00,weatherlink.com 1.10,2013-07-20 13:16:00,
2013-07-20 08:31:00,70.8,64.0,29.70,SE,146,0.0,1.0,78,0.00,,,0.00,weatherlink.com 1.10,2013-07-20 13:31:00,
2013-07-20 08:46:00,72.8,65.0,29.71,SE,146,0.0,1.0,77,0.00,,,0.00,weatherlink.com 1.10,2013-07-20 13:46:00,
2013-07-20 09:01:00,74.5,65.0,29.72,SE,146,0.0,1.0,71,0.00,,,0.00,weatherlink.com 1.10,2013-07-20 14:01:00,
2013-07-20 09:16:00,75.1,66.0,29.74,SE,146,0.0,0.0,72,0.00,,,0.00,weatherlink.com 1.10,2013-07-20 14:16:00,
2013-07-20 09:31:00,76.0,66.0,29.73,SE,146,0.0,0.0,70,0.00,,,0.00,weatherlink.com 1.10,2013-07-20 14:31:00,
2013-07-20 09:46:00,76.7,67.0,29.73,SE,146,0.0,1.0,71,0.00,,,0.00,weatherlink.com 1.10,2013-07-20 14:46:00,
2013-07-20 10:01:00,77.1,67.0,29.73,SE,146,0.0,0.0,71,0.00,,,0.00,weatherlink.com 1.10,2013-07-20 15:01:00,
2013-07-20 10:16:00,78.1,66.0,29.75,SE,146,0.0,0.0,67,0.00,,,0.00,weatherlink.com 1.10,2013-07-20 15:16:00,
2013-07-20 10:31:00,78.9,67.0,29.75,SE,146,0.0,1.0,66,0.00,,,0.00,weatherlink.com 1.10,2013-07-20 15:31:00,
2013-07-20 10:46:00,79.7,66.0,29.76,SE,146,0.0,1.0,64,0.00,,,0.00,weatherlink.com 1.10,2013-07-20 15:46:00,
2013-07-20 11:01:00,80.5,67.0,29.76,SW,236,0.0,2.0,64,0.00,,,0.00,weatherlink.com 1.10,2013-07-20 16:01:00,
2013-07-20 11:16:00,81.6,68.0,29.77,SW,228,0.0,1.0,63,0.00,,,0.00,weatherlink.com 1.10,2013-07-20 16:16:00,
2013-07-20 11:31:00,82.3,67.0,29.75,SW,227,0.0,1.0,60,0.00,,,0.00,weatherlink.com 1.10,2013-07-20 16:31:00,
2013-07-20 11:46:00,82.9,68.0,29.74,South,189,0.0,2.0,60,0.00,,,0.00,weatherlink.com 1.10,2013-07-20 16:46:00,
2013-07-20 12:01:00,84.1,67.0,29.73,South,189,0.0,2.0,57,0.00,,,0.00,weatherlink.com 1.10,2013-07-20 17:01:00,
2013-07-20 12:17:00,84.5,66.0,29.73,South,176,1.0,1.0,54,0.00,,,0.00,weatherlink.com 1.10,2013-07-20 17:17:00,
2013-07-20 12:32:00,85.6,65.0,29.72,SE,138,0.0,3.0,51,0.00,,,0.00,weatherlink.com 1.10,2013-07-20 17:32:00,
2013-07-20 12:47:00,86.0,66.0,29.70,SSE,155,0.0,2.0,52,0.00,,,0.00,weatherlink.com 1.10,2013-07-20 17:47:00,
2013-07-20 13:02:00,86.2,66.0,29.70,South,177,0.0,3.0,51,0.00,,,0.00,weatherlink.com 1.10,2013-07-20 18:02:00,
2013-07-20 13:17:00,86.8,68.0,29.70,South,171,0.0,2.0,53,0.00,,,0.00,weatherlink.com 1.10,2013-07-20 18:17:00,
2013-07-20 13:32:00,88.1,68.0,29.69,SW,221,0.0,4.0,51,0.00,,,0.00,weatherlink.com 1.10,2013-07-20 18:32:00,
2013-07-20 13:47:00,87.7,66.0,29.69,South,171,0.0,3.0,48,0.00,,,0.00,weatherlink.com 1.10,2013-07-20 18:47:00,
2013-07-20 14:02:00,86.8,67.0,29.69,SSE,155,0.0,3.0,51,0.00,,,0.00,weatherlink.com 1.10,2013-07-20 19:02:00,
2013-07-20 14:17:00,87.7,66.0,29.70,SSE,156,0.0,1.0,49,0.00,,,0.00,weatherlink.com 1.10,2013-07-20 19:17:00,
2013-07-20 14:32:00,88.2,65.0,29.69,SSE,155,0.0,2.0,47,0.00,,,0.00,weatherlink.com 1.10,2013-07-20 19:32:00,
2013-07-20 14:47:00,89.2,68.0,29.68,SW,225,2.0,2.0,50,0.00,,,0.00,weatherlink.com 1.10,2013-07-20 19:47:00,
2013-07-20 15:02:00,89.0,66.0,29.68,SW,219,0.0,1.0,47,0.00,,,0.00,weatherlink.com 1.10,2013-07-20 20:02:00,
2013-07-20 15:17:00,89.5,66.0,29.68,SW,219,0.0,1.0,46,0.00,,,0.00,weatherlink.com 1.10,2013-07-20 20:17:00,
2013-07-20 15:32:00,90.2,65.0,29.68,SSE,152,0.0,1.0,44,0.00,,,0.00,weatherlink.com 1.10,2013-07-20 20:32:00,
2013-07-20 16:17:00,88.6,65.0,29.68,WNW,293,0.0,0.0,45,0.00,,,0.00,weatherlink.com 1.10,2013-07-20 21:17:00,
2013-07-20 16:32:00,88.2,65.0,29.66,SSW,192,0.0,2.0,47,0.00,,,0.00,weatherlink.com 1.10,2013-07-20 21:32:00,
2013-07-20 16:47:00,89.3,67.0,29.65,SSW,192,0.0,1.0,48,0.00,,,0.00,weatherlink.com 1.10,2013-07-20 21:47:00,
2013-07-20 17:02:00,90.6,66.0,29.64,SSW,199,1.0,3.0,44,0.00,,,0.00,weatherlink.com 1.10,2013-07-20 22:02:00,
2013-07-20 17:17:00,88.9,65.0,29.63,ESE,112,0.0,8.0,45,0.00,,,0.00,weatherlink.com 1.10,2013-07-20 22:17:00,
2013-07-20 17:32:00,87.7,64.0,29.62,SSE,161,0.0,6.0,45,0.00,,,0.00,weatherlink.com 1.10,2013-07-20 22:32:00,
2013-07-20 17:47:00,86.7,65.0,29.62,SE,146,1.0,5.0,48,0.00,,,0.00,weatherlink.com 1.10,2013-07-20 22:47:00,
2013-07-20 18:02:00,85.3,63.0,29.62,SE,146,0.0,7.0,48,0.00,,,0.00,weatherlink.com 1.10,2013-07-20 23:02:00,
2013-07-20 18:17:00,86.1,63.0,29.61,SSE,163,1.0,6.0,46,0.00,,,0.00,weatherlink.com 1.10,2013-07-20 23:17:00,
2013-07-20 18:47:00,85.3,59.0,29.62,SW,233,0.0,8.0,41,0.00,,,0.00,weatherlink.com 1.10,2013-07-20 23:47:00,
2013-07-20 19:47:00,83.7,63.0,29.62,SSE,166,0.0,0.0,49,0.00,,,0.00,weatherlink.com 1.10,2013-07-21 00:47:00,
2013-07-20 20:02:00,82.9,64.0,29.63,SSE,166,0.0,0.0,54,0.00,,,0.00,weatherlink.com 1.10,2013-07-21 01:02:00,
2013-07-20 20:32:00,80.3,64.0,29.63,SSE,166,0.0,0.0,57,0.00,,,0.00,weatherlink.com 1.10,2013-07-21 01:32:00,
2013-07-20 20:47:00,78.9,65.0,29.64,SSE,166,0.0,0.0,62,0.00,,,0.00,weatherlink.com 1.10,2013-07-21 01:47:00,
2013-07-20 21:02:00,77.5,64.0,29.64,SSE,166,0.0,0.0,63,0.00,,,0.00,weatherlink.com 1.10,2013-07-21 02:02:00,
2013-07-20 21:17:00,76.4,64.0,29.66,SSE,166,0.0,0.0,65,0.00,,,0.00,weatherlink.com 1.10,2013-07-21 02:17:00,
2013-07-20 21:32:00,75.5,64.0,29.67,SSE,166,0.0,0.0,68,0.00,,,0.00,weatherlink.com 1.10,2013-07-21 02:32:00,
2013-07-20 21:47:00,74.6,63.0,29.67,SSE,166,0.0,0.0,68,0.00,,,0.00,weatherlink.com 1.10,2013-07-21 02:47:00,
2013-07-20 22:02:00,74.0,64.0,29.68,SSE,166,0.0,0.0,70,0.00,,,0.00,weatherlink.com 1.10,2013-07-21 03:02:00,
2013-07-20 22:17:00,73.4,64.0,29.68,SSE,166,0.0,0.0,72,0.00,,,0.00,weatherlink.com 1.10,2013-07-21 03:17:00,
2013-07-20 22:32:00,73.0,64.0,29.68,SSE,166,0.0,0.0,73,0.00,,,0.00,weatherlink.com 1.10,2013-07-21 03:32:00,
2013-07-20 22:47:00,72.8,64.0,29.68,SSE,166,0.0,0.0,74,0.00,,,0.00,weatherlink.com 1.10,2013-07-21 03:47:00,
2013-07-20 23:02:00,72.8,65.0,29.68,SSE,166,0.0,0.0,76,0.00,,,0.00,weatherlink.com 1.10,2013-07-21 04:02:00,
2013-07-20 23:17:00,72.7,65.0,29.67,SSE,166,0.0,0.0,77,0.00,,,0.00,weatherlink.com 1.10,2013-07-21 04:17:00,
2013-07-20 23:32:00,72.6,65.0,29.67,SSE,166,0.0,0.0,78,0.00,,,0.00,weatherlink.com 1.10,2013-07-21 04:32:00,
2013-07-20 23:47:00,72.6,65.0,29.67,SSE,166,0.0,0.0,78,0.00,,,0.00,weatherlink.com 1.10,2013-07-21 04:47:00,